Flight Track Log - Related Links

Times and Time Zones

All times are in EDT time to prevent confusion due to time zone crossing. See the SWA714 flight status page for this flight to view local times or setup timezone preferences in your user account.

Time Position Orientation Groundspeed Altitude Reporting Facility
EDT Latitude Longitude Course Direction KTS MPH feet Rate Location/Type
Thu 04:14:19 PM 29.5503 -98.4439 31° Northeast 176 203 1,400  Level Houston Center
Thu 04:14:55 PM 29.5758 -98.4264 31° Northeast 192 221 2,700 2,351 Climbing Houston Center
Thu 04:15:56 PM 29.6456 -98.4300 357° North 260 299 5,200 2,656 Climbing Houston Center
Thu 04:16:57 PM 29.7061 -98.4708 330° Northwest 258 297 8,100 2,382 Climbing Houston Center
Thu 04:18:12 PM 29.7972 -98.4692 North 300 345 10,600 1,927 Climbing Houston Center
Thu 04:19:14 PM 29.9025 -98.4433 12° North 359 413 12,500 2,419 Climbing Houston Center
Thu 04:20:16 PM 30.0161 -98.4147 12° North 389 448 15,600 2,565 Climbing Houston Center
Thu 04:21:18 PM 30.1225 -98.3886 12° North 396 456 17,800 2,419 Climbing Houston Center
Thu 04:22:20 PM 30.2431 -98.3731 North 405 466 20,600 2,613 Climbing Houston Center
Thu 04:23:22 PM 30.3567 -98.3572 North 405 466 23,200 2,129 Climbing Houston Center
Thu 04:24:24 PM 30.4683 -98.3403 North 403 464 25,000 1,742 Climbing Houston Center
Thu 04:25:26 PM 30.5817 -98.3233 North 404 465 26,800 1,488 Climbing Houston Center
Thu 04:26:29 PM 30.6989 -98.3056 North 415 478 28,100 1,056 Climbing Houston Center
Thu 04:27:31 PM 30.8164 -98.2508 22° Northeast 449 517 29,000 435 Climbing Houston Center
Thu 04:28:33 PM 30.9342 -98.1906 24° Northeast 457 526 29,000  Level Houston Center
Thu 04:29:35 PM 31.0503 -98.1314 24° Northeast 452 520 29,000  Level Houston Center
Thu 04:30:37 PM 31.1847 -98.0617 24° Northeast 447 514 29,000  Level Houston Center
Thu 04:31:39 PM 31.2975 -98.0025 24° Northeast 441 507 29,000  Level Houston Center
Thu 04:32:44 PM 31.4167 -97.9417 24° Northeast 436 502 29,000  Level Fort Worth Center
Thu 04:33:44 PM 31.5297 -97.8836 24° Northeast 436 502 29,000 -1,050 Level Fort Worth Center
Thu 04:34:44 PM 31.6406 -97.8258 24° Northeast 431 496 26,900 -2,450 Descending Fort Worth Center
Thu 04:35:44 PM 31.7494 -97.7675 24° Northeast 425 489 24,100 -2,700 Descending Fort Worth Center
Thu 04:36:44 PM 31.8517 -97.7142 24° Northeast 412 474 21,500 -2,600 Descending Fort Worth Center
Thu 04:37:44 PM 31.9500 -97.6656 23° Northeast 401 461 18,900 -2,400 Descending Fort Worth Center
Thu 04:38:44 PM 32.0356 -97.6167 26° Northeast 376 433 16,700 -2,350 Descending Fort Worth Center
Thu 04:39:44 PM 32.1381 -97.5631 24° Northeast 371 427 14,200 -2,150 Descending Fort Worth Center
Thu 04:40:44 PM 32.2194 -97.5189 25° Northeast 360 414 12,400 -1,100 Descending Fort Worth Center
Thu 04:41:44 PM 32.3053 -97.4625 29° Northeast 329 379 12,000 -600 Descending Fort Worth Center
Thu 04:42:44 PM 32.3636 -97.3986 43° Northeast 316 364 11,200 -950 Descending Fort Worth Center
Thu 04:43:44 PM 32.3886 -97.2856 75° East 306 352 10,100 -1,200 Descending Fort Worth Center
Thu 04:44:44 PM 32.4072 -97.1944 76° East 312 359 8,800 -1,450 Descending Fort Worth Center
Thu 04:45:44 PM 32.4300 -97.0886 76° East 312 359 7,200 -1,400 Descending Fort Worth Center
Thu 04:46:44 PM 32.4464 -97.0047 77° East 295 339 6,000 -1,350 Descending Fort Worth Center
Thu 04:47:44 PM 32.4650 -96.9014 78° East 290 334 4,500 -1,000 Descending Fort Worth Center
Thu 04:48:44 PM 32.5231 -96.8517 36° Northeast 242 278 4,000 -250 Descending Fort Worth Center
Thu 04:49:44 PM 32.5836 -96.8317 16° North 242 278 4,000 -450 Level Fort Worth Center
Thu 04:50:44 PM 32.6544 -96.8139 12° North 242 278 3,100 -650 Descending Fort Worth Center
Thu 04:51:44 PM 32.7108 -96.8086 North 232 267 2,700 -300 Descending Fort Worth Center
Thu 04:52:44 PM 32.7714 -96.8031 North 201 231 2,500 -706 Descending Fort Worth Center
Thu 04:53:43 PM 32.8167 -96.8167 346° North 155 178 1,300 -1,220 Descending Dallas / Fort Worth TRACON
Thu 04:55:00 PM 32.8333 -96.8500 North  Level FlightAware Approximate
Thu 05:02:00 PM 32.8471 -96.8518 North  Level Estimated
Thu 05:03:00 PM 32.8471 -96.8518 North  Level Estimated

Login

Don't have an account? Register now (free) for customized features, flight alerts, and more!